createdAt,value
2018-12-07T00:02:05.301Z,8.00
2018-12-07T00:04:33.707Z,8.10
2018-12-07T00:07:02.096Z,8.10
2018-12-07T00:09:30.479Z,8.10
2018-12-07T00:11:58.887Z,8.10
2018-12-07T00:14:27.257Z,8.10
2018-12-07T00:16:55.669Z,8.10
2018-12-07T00:19:24.130Z,8.00
2018-12-07T00:21:52.547Z,8.00
2018-12-07T00:24:20.940Z,8.00
2018-12-07T00:26:49.382Z,8.00
2018-12-07T00:29:17.790Z,8.00
2018-12-07T00:31:46.175Z,8.00
2018-12-07T00:34:14.565Z,8.10
2018-12-07T00:36:42.958Z,8.10
2018-12-07T00:39:11.370Z,8.00
2018-12-07T00:41:39.749Z,8.10
2018-12-07T00:44:08.152Z,8.10
2018-12-07T00:46:36.571Z,8.10
2018-12-07T00:49:05.008Z,8.10
2018-12-07T00:51:33.409Z,8.10
2018-12-07T00:54:01.798Z,8.20
2018-12-07T00:56:30.207Z,8.20
2018-12-07T00:58:58.616Z,8.20
2018-12-07T01:01:27.004Z,8.10
2018-12-07T01:03:55.388Z,8.10
2018-12-07T01:06:23.803Z,8.20
2018-12-07T01:08:52.247Z,8.20
2018-12-07T01:11:20.625Z,8.20
2018-12-07T01:13:49.026Z,8.10
2018-12-07T01:16:17.435Z,8.10
2018-12-07T01:18:45.809Z,8.10
2018-12-07T01:21:14.241Z,8.20
2018-12-07T01:23:42.637Z,8.20
2018-12-07T01:26:11.039Z,8.20
2018-12-07T01:28:39.444Z,8.20
2018-12-07T01:31:07.845Z,8.20
2018-12-07T01:33:36.233Z,8.20
2018-12-07T01:36:04.688Z,8.20
2018-12-07T01:38:33.105Z,8.10
2018-12-07T01:41:01.508Z,8.10
2018-12-07T01:43:29.884Z,8.20
2018-12-07T01:45:58.294Z,8.20
2018-12-07T01:48:26.695Z,8.30
2018-12-07T01:50:55.073Z,8.20
2018-12-07T01:53:23.479Z,8.20
2018-12-07T01:55:51.866Z,8.30
2018-12-07T01:58:20.282Z,8.30
2018-12-07T02:00:48.694Z,8.30
2018-12-07T02:03:17.090Z,8.20
2018-12-07T02:05:45.499Z,8.30
2018-12-07T02:08:13.899Z,8.20
2018-12-07T02:10:42.291Z,8.30
2018-12-07T02:13:10.701Z,8.20
2018-12-07T02:15:39.097Z,8.20
2018-12-07T02:18:07.480Z,8.20
2018-12-07T02:20:35.902Z,8.20
2018-12-07T02:23:04.340Z,8.20
2018-12-07T02:25:32.736Z,8.20
2018-12-07T02:28:01.134Z,8.30
2018-12-07T02:30:29.585Z,8.30
2018-12-07T02:32:57.962Z,8.20
2018-12-07T02:35:26.628Z,8.20
2018-12-07T02:37:55.001Z,8.30
2018-12-07T02:40:23.392Z,8.20
2018-12-07T02:42:51.789Z,8.10
2018-12-07T02:45:20.171Z,8.20
2018-12-07T02:47:48.563Z,8.20
2018-12-07T02:50:16.933Z,8.20
2018-12-07T02:52:45.347Z,8.20
2018-12-07T02:55:13.764Z,8.30
2018-12-07T02:57:42.150Z,8.20
2018-12-07T03:00:10.685Z,8.30
2018-12-07T03:02:39.086Z,8.30
2018-12-07T03:05:07.551Z,8.30
2018-12-07T03:07:35.950Z,8.30
2018-12-07T03:10:05.835Z,8.30
2018-12-07T03:12:34.227Z,8.30
2018-12-07T03:15:02.630Z,8.40
2018-12-07T03:17:31.035Z,8.40
2018-12-07T03:19:59.421Z,8.50
2018-12-07T03:22:27.824Z,8.40
2018-12-07T03:24:56.236Z,8.40
2018-12-07T03:27:24.614Z,8.40
2018-12-07T03:29:53.019Z,8.40
2018-12-07T03:32:21.405Z,8.50
2018-12-07T03:34:49.797Z,8.50
2018-12-07T03:37:18.196Z,8.50
2018-12-07T03:39:46.565Z,8.50
2018-12-07T03:42:15.088Z,8.60
2018-12-07T03:44:43.729Z,8.60
2018-12-07T03:47:12.129Z,8.60
2018-12-07T03:49:40.528Z,8.60
2018-12-07T03:52:08.910Z,8.60
2018-12-07T03:54:37.305Z,8.60
2018-12-07T03:57:05.711Z,8.60
2018-12-07T03:59:34.099Z,8.60
2018-12-07T04:02:02.565Z,8.60
2018-12-07T04:04:30.941Z,8.60
2018-12-07T04:06:59.323Z,8.60
2018-12-07T04:09:27.989Z,8.70
2018-12-07T04:11:56.395Z,8.60
2018-12-07T04:14:24.803Z,8.60
2018-12-07T04:16:53.191Z,8.70
2018-12-07T04:19:21.579Z,8.60
2018-12-07T04:21:49.984Z,8.60
2018-12-07T04:24:18.355Z,8.60
2018-12-07T04:26:46.786Z,8.60
2018-12-07T04:29:15.415Z,8.70
2018-12-07T04:31:43.819Z,8.60
2018-12-07T04:34:12.208Z,8.70
2018-12-07T04:36:40.613Z,8.60
2018-12-07T04:39:09.005Z,8.60
2018-12-07T04:41:37.414Z,8.60
2018-12-07T04:44:05.799Z,8.60
2018-12-07T04:46:34.276Z,8.60
2018-12-07T04:49:02.670Z,8.70
2018-12-07T04:51:31.075Z,8.60
2018-12-07T04:53:59.478Z,8.60
2018-12-07T04:56:27.859Z,8.70
2018-12-07T04:58:56.372Z,8.70
2018-12-07T05:01:25.040Z,8.80
2018-12-07T05:03:53.447Z,8.70
2018-12-07T05:06:21.828Z,8.70
2018-12-07T05:08:50.244Z,8.60
2018-12-07T05:11:18.637Z,8.60
2018-12-07T05:13:47.030Z,8.70
2018-12-07T05:16:15.415Z,8.70
2018-12-07T05:18:44.247Z,8.70
2018-12-07T05:21:12.632Z,8.70
2018-12-07T05:23:41.023Z,8.70
2018-12-07T05:26:09.409Z,8.80
2018-12-07T05:28:37.837Z,8.70
2018-12-07T05:31:06.997Z,8.60
2018-12-07T05:33:35.393Z,8.70
2018-12-07T05:36:03.775Z,8.80
2018-12-07T05:38:32.182Z,8.70
2018-12-07T05:41:00.609Z,8.70
2018-12-07T05:43:29.001Z,8.70
2018-12-07T05:45:57.383Z,8.70
2018-12-07T05:48:25.774Z,8.80
2018-12-07T05:50:54.153Z,8.80
2018-12-07T05:53:22.547Z,8.80
2018-12-07T05:55:50.931Z,8.80
2018-12-07T05:58:19.307Z,8.80
2018-12-07T06:00:47.717Z,8.80
2018-12-07T06:03:16.089Z,8.80
2018-12-07T06:05:44.509Z,8.80
2018-12-07T06:08:12.900Z,8.80
2018-12-07T06:10:41.300Z,8.80
2018-12-07T06:13:09.691Z,8.90
2018-12-07T06:15:38.091Z,8.90
2018-12-07T06:18:06.530Z,8.80
2018-12-07T06:20:34.921Z,8.90
2018-12-07T06:23:03.359Z,8.80
2018-12-07T06:25:31.750Z,8.90
2018-12-07T06:28:00.132Z,8.90
2018-12-07T06:30:28.531Z,8.90
2018-12-07T06:32:56.934Z,8.90
2018-12-07T06:35:25.399Z,8.90
2018-12-07T06:37:53.802Z,8.80
2018-12-07T06:40:22.179Z,8.80
2018-12-07T06:42:50.583Z,8.80
2018-12-07T06:45:18.953Z,8.80
2018-12-07T06:47:47.340Z,8.70
2018-12-07T06:50:15.734Z,8.90
2018-12-07T06:52:44.224Z,8.90
2018-12-07T06:55:12.678Z,8.80
2018-12-07T06:57:41.056Z,8.90
2018-12-07T07:00:09.718Z,9.00
2018-12-07T07:02:38.347Z,8.90
2018-12-07T07:05:07.897Z,8.90
2018-12-07T07:07:36.283Z,8.90
2018-12-07T07:10:06.124Z,9.00
2018-12-07T07:12:34.600Z,8.90
2018-12-07T07:15:03.167Z,9.00
2018-12-07T07:17:31.644Z,8.90
2018-12-07T07:20:00.051Z,8.90
2018-12-07T07:22:28.448Z,9.00
2018-12-07T07:24:56.817Z,8.90
2018-12-07T07:27:25.234Z,8.80
2018-12-07T07:29:53.620Z,8.80
2018-12-07T07:32:21.999Z,8.70
2018-12-07T07:34:50.733Z,8.70
2018-12-07T07:37:19.134Z,8.70
2018-12-07T07:39:47.544Z,8.70
2018-12-07T07:42:15.931Z,8.70
2018-12-07T07:44:44.322Z,8.80
2018-12-07T07:47:12.705Z,8.90
2018-12-07T07:49:41.109Z,8.80
2018-12-07T07:52:09.508Z,8.70
2018-12-07T07:54:37.891Z,8.80
2018-12-07T07:57:06.294Z,8.80
2018-12-07T07:59:34.684Z,8.70
2018-12-07T08:02:03.069Z,8.70
2018-12-07T08:04:31.450Z,8.80
2018-12-07T08:06:59.851Z,8.70
2018-12-07T08:09:28.225Z,8.70
2018-12-07T08:11:56.634Z,8.70
2018-12-07T08:14:25.023Z,8.70
2018-12-07T08:16:53.683Z,8.70
2018-12-07T08:19:22.077Z,8.80
2018-12-07T08:21:50.467Z,8.80
2018-12-07T08:24:18.861Z,8.90
2018-12-07T08:26:47.250Z,8.80
2018-12-07T08:29:15.634Z,8.70
2018-12-07T08:31:44.053Z,8.80
2018-12-07T08:34:12.465Z,8.80
2018-12-07T08:36:40.852Z,8.90
2018-12-07T08:39:10.091Z,8.90
2018-12-07T08:41:38.477Z,8.90
2018-12-07T08:44:07.124Z,8.90
2018-12-07T08:46:35.518Z,8.80
2018-12-07T08:49:03.972Z,8.90
2018-12-07T08:51:32.358Z,8.90
2018-12-07T08:54:00.772Z,8.80
2018-12-07T08:56:30.460Z,8.80
2018-12-07T08:58:59.130Z,8.70
2018-12-07T09:01:27.505Z,8.80
2018-12-07T09:03:55.906Z,8.90
2018-12-07T09:06:24.300Z,8.90
2018-12-07T09:08:52.695Z,8.90
2018-12-07T09:11:21.082Z,8.90
2018-12-07T09:13:49.454Z,9.00
2018-12-07T09:16:17.864Z,9.10
2018-12-07T09:18:46.252Z,9.00
2018-12-07T09:21:14.655Z,9.00
2018-12-07T09:23:49.398Z,9.00
2018-12-07T09:26:13.445Z,9.00
2018-12-07T09:28:41.844Z,9.10
2018-12-07T09:31:10.248Z,9.10
2018-12-07T09:33:38.631Z,9.10
2018-12-07T09:36:07.030Z,9.10
2018-12-07T09:38:35.435Z,9.10
2018-12-07T09:41:04.097Z,9.10
2018-12-07T09:43:32.493Z,9.10
2018-12-07T09:46:00.890Z,9.10
2018-12-07T09:48:29.272Z,9.10
2018-12-07T09:50:57.679Z,9.20
2018-12-07T09:53:26.061Z,9.20
2018-12-07T09:55:54.476Z,9.20
2018-12-07T09:58:23.841Z,9.20
2018-12-07T10:00:52.227Z,9.20
2018-12-07T10:03:20.621Z,9.20
2018-12-07T10:05:49.017Z,9.20
2018-12-07T10:08:17.398Z,9.20
2018-12-07T10:10:45.816Z,9.20
2018-12-07T10:13:14.195Z,9.20
2018-12-07T10:15:42.578Z,9.20
2018-12-07T10:18:10.986Z,9.30
2018-12-07T10:20:39.356Z,9.20
2018-12-07T10:23:07.753Z,9.20
2018-12-07T10:25:36.145Z,9.20
2018-12-07T10:28:04.591Z,9.20
2018-12-07T10:30:32.984Z,9.20
2018-12-07T10:33:01.376Z,9.30
2018-12-07T10:35:29.749Z,9.20
2018-12-07T10:37:58.116Z,9.30
2018-12-07T10:40:26.532Z,9.30
2018-12-07T10:42:54.923Z,9.30
2018-12-07T10:45:23.336Z,9.30
2018-12-07T10:47:51.778Z,9.30
2018-12-07T10:50:20.169Z,9.20
2018-12-07T10:52:48.557Z,9.20
2018-12-07T10:55:16.943Z,9.20
2018-12-07T10:57:45.349Z,9.10
2018-12-07T11:00:22.609Z,8.90
2018-12-07T11:05:52.888Z,9.00
2018-12-07T11:08:26.862Z,9.00
2018-12-07T11:10:55.640Z,9.10
2018-12-07T11:13:29.564Z,9.20
2018-12-07T11:16:03.569Z,9.20
2018-12-07T11:18:37.574Z,9.30
2018-12-07T11:21:11.368Z,9.20
2018-12-07T11:23:45.324Z,9.20
2018-12-07T11:26:19.163Z,9.20
2018-12-07T11:28:53.105Z,9.30
2018-12-07T11:31:42.036Z,9.40
2018-12-07T11:34:12.211Z,9.40
2018-12-07T11:36:40.599Z,9.30
2018-12-07T11:39:09.194Z,9.40
2018-12-07T11:41:37.601Z,9.30
2018-12-07T11:44:06.021Z,9.30
2018-12-07T11:46:34.432Z,9.30
2018-12-07T11:49:02.845Z,9.30
2018-12-07T11:51:31.294Z,9.30
2018-12-07T11:53:59.714Z,9.20
2018-12-07T11:56:28.107Z,9.30
2018-12-07T11:58:56.519Z,9.40
2018-12-07T12:01:24.929Z,9.40
2018-12-07T12:03:53.335Z,9.30
2018-12-07T12:06:21.758Z,9.30
2018-12-07T12:08:50.195Z,9.30
2018-12-07T12:11:18.583Z,9.30
2018-12-07T12:13:47.006Z,9.40
2018-12-07T12:16:15.424Z,9.40
2018-12-07T12:18:43.826Z,9.40
2018-12-07T12:21:12.244Z,9.50
2018-12-07T12:23:40.631Z,9.40
2018-12-07T12:26:09.058Z,9.40
2018-12-07T12:28:37.494Z,9.40
2018-12-07T12:31:05.892Z,9.50
2018-12-07T12:33:34.293Z,9.50
2018-12-07T12:36:02.980Z,9.40
2018-12-07T12:38:31.397Z,9.40
2018-12-07T12:40:59.792Z,9.40
2018-12-07T12:43:28.226Z,9.40
2018-12-07T12:45:56.632Z,9.40
2018-12-07T12:48:25.024Z,9.40
2018-12-07T12:50:55.213Z,9.40
2018-12-07T12:53:23.618Z,9.40
2018-12-07T12:55:52.081Z,9.40
2018-12-07T12:58:20.505Z,9.40
2018-12-07T13:00:48.905Z,9.40
2018-12-07T13:03:17.309Z,9.30
2018-12-07T13:05:45.743Z,9.30
2018-12-07T13:08:14.136Z,9.30
2018-12-07T13:10:42.544Z,9.30
2018-12-07T13:13:10.959Z,9.30
2018-12-07T13:15:39.382Z,9.30
2018-12-07T13:18:07.789Z,9.20
2018-12-07T13:20:36.209Z,9.20
2018-12-07T13:23:04.609Z,9.20
2018-12-07T13:25:33.045Z,9.20
2018-12-07T13:28:01.466Z,9.30
2018-12-07T13:30:29.864Z,9.30
2018-12-07T13:32:58.285Z,9.30
2018-12-07T13:35:26.708Z,9.30
2018-12-07T13:37:55.126Z,9.20
2018-12-07T13:40:23.603Z,9.20
2018-12-07T13:42:52.320Z,9.10
2018-12-07T13:45:20.726Z,9.20
2018-12-07T13:47:49.730Z,9.20
2018-12-07T13:50:24.036Z,9.10
2018-12-07T13:52:52.836Z,9.10
2018-12-07T13:55:21.292Z,9.20
2018-12-07T13:57:50.109Z,9.20
2018-12-07T14:00:18.934Z,9.20
2018-12-07T14:02:47.623Z,9.10
2018-12-07T14:05:16.287Z,9.10
2018-12-07T14:07:45.021Z,9.10
2018-12-07T14:10:13.759Z,9.00
2018-12-07T14:12:42.456Z,9.10
2018-12-07T14:15:11.412Z,9.10
2018-12-07T14:17:40.038Z,9.10
2018-12-07T14:20:09.049Z,9.20
2018-12-07T14:22:37.689Z,9.10
2018-12-07T14:25:06.640Z,9.10
2018-12-07T14:27:35.363Z,9.10
2018-12-07T14:30:06.012Z,9.00
2018-12-07T14:32:34.635Z,9.00
2018-12-07T14:35:03.307Z,9.00
2018-12-07T14:37:32.293Z,9.00
2018-12-07T14:40:00.983Z,8.90
2018-12-07T14:42:29.597Z,8.90
2018-12-07T14:44:58.112Z,8.90
2018-12-07T14:47:26.992Z,8.90
2018-12-07T14:49:55.811Z,8.80
2018-12-07T14:52:24.619Z,8.80
2018-12-07T14:54:53.238Z,8.90
2018-12-07T14:57:22.135Z,9.00
2018-12-07T14:59:51.030Z,9.00
2018-12-07T15:02:19.621Z,9.00
2018-12-07T15:04:48.309Z,9.00
2018-12-07T15:07:17.153Z,9.00
2018-12-07T15:09:45.899Z,9.00
2018-12-07T15:12:14.763Z,9.00
2018-12-07T15:14:43.639Z,9.00
2018-12-07T15:17:12.441Z,8.90
2018-12-07T15:19:41.259Z,8.90
2018-12-07T15:22:10.135Z,8.90
2018-12-07T15:24:38.832Z,8.90
2018-12-07T15:27:07.340Z,8.80
2018-12-07T15:29:36.152Z,8.70
2018-12-07T15:32:04.866Z,8.70
2018-12-07T15:34:33.472Z,8.70
2018-12-07T15:37:02.335Z,8.70
2018-12-07T15:39:31.035Z,8.70
2018-12-07T15:41:59.702Z,8.70
2018-12-07T15:44:28.375Z,8.70
2018-12-07T15:46:57.056Z,8.80
2018-12-07T15:49:25.769Z,8.80
2018-12-07T15:51:54.454Z,8.70
2018-12-07T15:54:23.123Z,8.70
2018-12-07T15:56:51.882Z,8.80
2018-12-07T15:59:20.712Z,8.60
2018-12-07T16:01:49.506Z,8.60
2018-12-07T16:04:18.306Z,8.60
2018-12-07T16:06:47.016Z,8.50
2018-12-07T16:09:15.678Z,8.60
2018-12-07T16:11:44.349Z,8.60
2018-12-07T16:14:13.029Z,8.60
2018-12-07T16:16:41.674Z,8.60
2018-12-07T16:19:10.447Z,8.60
2018-12-07T16:21:39.341Z,8.60
2018-12-07T16:24:08.196Z,8.60
2018-12-07T16:26:37.064Z,8.50
2018-12-07T16:29:06.004Z,8.60
2018-12-07T16:31:35.078Z,8.60
2018-12-07T16:34:03.715Z,8.70
2018-12-07T16:36:32.182Z,8.70
2018-12-07T16:39:01.117Z,8.60
2018-12-07T16:41:29.929Z,8.60
2018-12-07T16:43:58.693Z,8.60
2018-12-07T16:46:27.355Z,8.60
2018-12-07T16:48:56.384Z,8.60
2018-12-07T16:51:25.176Z,8.60
2018-12-07T16:53:53.880Z,8.60
2018-12-07T16:56:22.666Z,8.50
2018-12-07T16:58:51.296Z,8.50
2018-12-07T17:01:20.055Z,8.50
2018-12-07T17:03:48.764Z,8.50
2018-12-07T17:06:17.715Z,8.50
2018-12-07T17:08:46.644Z,8.40
2018-12-07T17:11:15.472Z,8.50
2018-12-07T17:13:44.305Z,8.50
2018-12-07T17:16:13.013Z,8.50
2018-12-07T17:18:41.780Z,8.50
2018-12-07T17:21:10.431Z,8.40
2018-12-07T17:23:39.545Z,8.40
2018-12-07T17:26:08.171Z,8.50
2018-12-07T17:28:37.235Z,8.40
2018-12-07T17:31:05.757Z,8.50
2018-12-07T17:33:34.541Z,8.40
2018-12-07T17:36:03.231Z,8.40
2018-12-07T17:38:31.950Z,8.40
2018-12-07T17:41:00.573Z,8.40
2018-12-07T17:43:29.061Z,8.40
2018-12-07T17:45:57.735Z,8.50
2018-12-07T17:48:26.372Z,8.40
2018-12-07T17:50:54.994Z,8.30
2018-12-07T17:53:23.646Z,8.40
2018-12-07T17:55:52.528Z,8.40
2018-12-07T17:58:21.399Z,8.40
2018-12-07T18:00:50.171Z,8.30
2018-12-07T18:03:18.795Z,8.30
2018-12-07T18:05:47.350Z,8.20
2018-12-07T18:08:16.065Z,8.30
2018-12-07T18:10:44.600Z,8.30
2018-12-07T18:13:13.346Z,8.30
2018-12-07T18:15:41.870Z,8.30
2018-12-07T18:18:10.968Z,8.40
2018-12-07T18:20:39.681Z,8.50
2018-12-07T18:23:08.183Z,8.40
2018-12-07T18:25:36.982Z,8.40
2018-12-07T18:28:05.610Z,8.30
2018-12-07T18:30:34.032Z,8.30
2018-12-07T18:33:02.788Z,8.30
2018-12-07T18:35:31.494Z,8.20
2018-12-07T18:37:59.923Z,8.30
2018-12-07T18:40:29.039Z,8.30
2018-12-07T18:42:57.940Z,8.30
2018-12-07T18:45:26.747Z,8.30
2018-12-07T18:47:55.604Z,8.30
2018-12-07T18:50:24.542Z,8.30
2018-12-07T18:52:53.199Z,8.30
2018-12-07T18:55:22.218Z,8.20
2018-12-07T18:57:51.203Z,8.20
2018-12-07T19:00:20.087Z,8.30
2018-12-07T19:02:48.751Z,8.30
2018-12-07T19:05:17.512Z,8.20
2018-12-07T19:07:46.175Z,8.20
2018-12-07T19:10:15.085Z,8.20
2018-12-07T19:12:43.953Z,8.20
2018-12-07T19:15:12.714Z,8.20
2018-12-07T19:17:41.431Z,8.20
2018-12-07T19:20:11.573Z,8.20
2018-12-07T19:22:40.472Z,8.20
2018-12-07T19:25:09.330Z,8.20
2018-12-07T19:27:38.066Z,8.20
2018-12-07T19:30:14.639Z,8.20
2018-12-07T19:32:39.958Z,8.20
2018-12-07T19:35:08.651Z,8.10
2018-12-07T19:37:37.315Z,8.10
2018-12-07T19:40:07.301Z,8.20
2018-12-07T19:42:35.963Z,8.10
2018-12-07T19:45:06.090Z,8.10
2018-12-07T19:47:34.831Z,8.10
2018-12-07T19:50:04.549Z,8.20
2018-12-07T19:52:33.579Z,8.20
2018-12-07T19:55:02.462Z,8.20
2018-12-07T19:57:31.087Z,8.20
2018-12-07T19:59:59.826Z,8.20
2018-12-07T20:02:28.363Z,8.20
2018-12-07T20:04:57.216Z,8.20
2018-12-07T20:07:25.880Z,8.10
2018-12-07T20:09:54.526Z,8.20
2018-12-07T20:12:23.167Z,8.20
2018-12-07T20:14:51.606Z,8.20
2018-12-07T20:17:20.331Z,8.20
2018-12-07T20:19:49.084Z,8.10
2018-12-07T20:22:17.863Z,8.20
2018-12-07T20:24:46.647Z,8.20
2018-12-07T20:27:15.269Z,8.20
2018-12-07T20:29:43.963Z,8.20
2018-12-07T20:32:12.614Z,8.20
2018-12-07T20:34:41.186Z,8.20
2018-12-07T20:37:10.123Z,8.20
2018-12-07T20:39:38.880Z,8.20
2018-12-07T20:42:07.726Z,8.20
2018-12-07T20:44:36.615Z,8.20
2018-12-07T20:47:05.512Z,8.20
2018-12-07T20:49:34.631Z,8.20
2018-12-07T20:52:03.334Z,8.20
2018-12-07T20:54:32.187Z,8.20
2018-12-07T20:57:01.242Z,8.20
2018-12-07T20:59:30.004Z,8.20
2018-12-07T21:04:31.910Z,8.20
2018-12-07T21:17:09.621Z,7.80
2018-12-07T21:19:40.653Z,7.80
2018-12-07T21:22:09.221Z,7.70
2018-12-07T21:27:06.291Z,7.70
2018-12-07T21:29:34.997Z,7.60
2018-12-07T21:32:07.386Z,7.60
2018-12-07T21:34:57.012Z,7.60
2018-12-07T21:37:25.556Z,7.50
2018-12-07T21:39:57.138Z,7.50
2018-12-07T21:42:25.728Z,7.40
2018-12-07T21:47:30.121Z,7.40
2018-12-07T21:49:59.435Z,7.40
2018-12-07T21:52:28.200Z,7.30
2018-12-07T21:54:56.986Z,7.40
2018-12-07T21:57:25.821Z,7.40
2018-12-07T21:59:54.541Z,7.40
2018-12-07T22:02:23.167Z,7.40
2018-12-07T22:04:51.705Z,7.30
2018-12-07T22:12:17.250Z,7.20
2018-12-07T22:14:46.497Z,7.10
2018-12-07T22:19:43.870Z,7.10
2018-12-07T22:22:12.942Z,7.00
2018-12-07T22:24:41.697Z,7.00
2018-12-07T22:27:10.362Z,7.00
2018-12-07T22:29:38.896Z,7.00
2018-12-07T22:32:07.548Z,7.00
2018-12-07T22:34:36.195Z,7.00
2018-12-07T22:37:05.359Z,6.90
2018-12-07T22:39:34.043Z,6.90
2018-12-07T22:42:02.745Z,6.80
2018-12-07T22:47:00.000Z,6.70
2018-12-07T22:49:28.626Z,6.80
2018-12-07T22:51:57.024Z,6.70
2018-12-07T22:54:25.419Z,6.70
2018-12-07T22:56:53.832Z,6.70
2018-12-07T23:04:18.410Z,6.60
2018-12-07T23:06:47.672Z,6.60
2018-12-07T23:09:16.114Z,6.60
2018-12-07T23:14:12.596Z,6.60
2018-12-07T23:16:40.994Z,6.60
2018-12-07T23:19:09.387Z,6.60
2018-12-07T23:21:37.761Z,6.60
2018-12-07T23:41:23.906Z,6.30
2018-12-07T23:43:52.310Z,6.30
